Time;durP1;ratioP1;P1;durP2;ratioP2;P2;SDS_P1;SDS_P2;PMS_P1;PMS_P2;Temp;Humidity;BMP_temperature;BMP_pressure;BME280_temperature;BME280_humidity;BME280_pressure;Samples;Min_cycle;Max_cycle;Signal;HPM_P1;HPM_P2
2022/01/14 00:01:42;;;;;;;97.43;33.53;;;1.70;99.90;;;;;;5036240;28;20182;-76
2022/01/14 00:04:07;;;;;;;172.33;39.63;;;1.80;99.90;;;;;;5040680;28;20280;-75
2022/01/14 00:06:33;;;;;;;83.50;34.20;;;1.80;99.90;;;;;;5045085;28;20297;-78
2022/01/14 00:09:08;;;;;;;79.57;34.67;;;1.80;99.90;;;;;;5040829;28;20193;-78
2022/01/14 00:11:39;;;;;;;119.27;34.77;;;1.80;99.90;;;;;;5043268;28;20216;-75
2022/01/14 00:16:31;;;;;;;69.87;31.20;;;1.80;99.90;;;;;;5044027;28;20216;-75
2022/01/14 00:18:59;;;;;;;74.87;33.80;;;1.80;99.90;;;;;;5043748;28;20183;-76
2022/01/14 00:21:29;;;;;;;123.27;36.07;;;1.80;99.90;;;;;;5045322;28;20648;-76
2022/01/14 00:24:07;;;;;;;90.90;31.70;;;1.90;99.90;;;;;;5044873;28;20380;-74
2022/01/14 00:34:41;;;;;;;182.63;36.27;;;1.70;99.90;;;;;;5044041;28;20436;-76
2022/01/14 00:37:07;;;;;;;84.27;31.00;;;1.70;99.90;;;;;;5035602;28;20229;-78
2022/01/14 00:39:33;;;;;;;63.57;29.53;;;1.70;99.90;;;;;;5040623;28;20650;-75
2022/01/14 00:41:59;;;;;;;152.27;34.63;;;1.70;99.90;;;;;;5036147;28;20186;-75
2022/01/14 00:44:24;;;;;;;62.00;29.87;;;1.70;99.90;;;;;;5041091;28;20631;-75
2022/01/14 00:46:51;;;;;;;53.93;29.70;;;1.70;99.90;;;;;;5034576;28;20183;-76
2022/01/14 00:49:20;;;;;;;104.93;30.63;;;1.70;99.90;;;;;;5036729;28;20240;-76
2022/01/14 00:51:47;;;;;;;151.53;33.83;;;1.70;99.90;;;;;;5047186;28;20196;-75
2022/01/14 00:54:14;;;;;;;321.93;39.10;;;1.70;99.90;;;;;;5046654;28;20487;-76
2022/01/14 00:59:16;;;;;;;187.03;36.90;;;1.60;99.90;;;;;;5039004;28;20189;-75
2022/01/14 01:01:49;;;;;;;189.50;35.37;;;1.60;99.90;;;;;;5038482;28;20178;-75
2022/01/14 01:04:18;;;;;;;101.37;30.30;;;1.50;99.90;;;;;;5041483;28;20232;-77
2022/01/14 01:06:44;;;;;;;94.13;33.40;;;1.50;99.90;;;;;;5048927;28;20185;-77
2022/01/14 01:09:12;;;;;;;128.40;34.00;;;1.50;99.90;;;;;;5045085;28;20191;-77
2022/01/14 01:11:45;;;;;;;76.20;29.67;;;1.50;99.90;;;;;;5065767;28;20178;-75
2022/01/14 01:14:28;;;;;;;70.13;29.83;;;1.50;99.90;;;;;;5060922;28;20200;-76
2022/01/14 01:16:54;;;;;;;86.03;30.23;;;1.40;99.90;;;;;;5049447;28;20205;-75
2022/01/14 01:19:21;;;;;;;61.37;28.27;;;1.40;99.90;;;;;;5046737;28;20224;-75
2022/01/14 01:21:47;;;;;;;99.07;28.67;;;1.40;99.90;;;;;;5036855;28;20261;-76
2022/01/14 01:24:14;;;;;;;98.67;29.87;;;1.40;99.90;;;;;;5042521;28;20808;-75
2022/01/14 01:26:42;;;;;;;63.87;28.50;;;1.40;99.90;;;;;;5048781;28;20198;-76
2022/01/14 01:31:38;;;;;;;61.07;27.50;;;1.50;99.90;;;;;;5047887;28;20208;-75
2022/01/14 01:34:16;;;;;;;94.67;31.70;;;1.50;99.90;;;;;;5038913;28;20261;-75
2022/01/14 01:36:46;;;;;;;136.60;29.80;;;1.50;99.90;;;;;;5033314;28;20677;-76
2022/01/14 01:39:15;;;;;;;114.27;30.73;;;1.60;99.90;;;;;;5038937;28;20656;-77
2022/01/14 01:41:48;;;;;;;51.30;26.20;;;1.60;99.90;;;;;;5043160;28;20181;-77
2022/01/14 01:44:16;;;;;;;53.87;26.73;;;1.60;99.90;;;;;;5035113;28;20206;-76
2022/01/14 01:46:46;;;;;;;58.97;28.60;;;1.60;99.90;;;;;;5033238;28;20193;-76
2022/01/14 01:49:13;;;;;;;84.97;29.63;;;1.70;99.90;;;;;;5035122;28;20260;-76
2022/01/14 01:51:39;;;;;;;55.70;27.63;;;1.70;99.90;;;;;;5036369;28;20575;-76
2022/01/14 01:54:06;;;;;;;56.17;26.27;;;1.70;99.90;;;;;;5037746;28;20201;-76
2022/01/14 01:56:31;;;;;;;68.80;27.53;;;1.70;99.90;;;;;;5040755;28;20249;-77
2022/01/14 01:58:57;;;;;;;57.50;27.23;;;1.70;99.90;;;;;;5040467;28;20208;-76
2022/01/14 02:01:24;;;;;;;48.47;26.27;;;1.70;99.90;;;;;;5045530;28;20550;-76
2022/01/14 02:03:52;;;;;;;72.10;29.37;;;1.60;99.90;;;;;;5019555;28;20216;-74
2022/01/14 02:06:20;;;;;;;52.60;26.03;;;1.70;99.90;;;;;;5046220;28;20197;-77
2022/01/14 02:08:46;;;;;;;61.70;27.57;;;1.80;99.90;;;;;;5037432;28;20175;-77
2022/01/14 02:11:13;;;;;;;63.77;28.37;;;1.80;99.90;;;;;;5042149;28;20649;-75
2022/01/14 02:13:39;;;;;;;67.93;29.43;;;1.70;99.90;;;;;;5045547;28;20208;-74
2022/01/14 02:23:49;;;;;;;53.97;26.87;;;1.80;99.90;;;;;;5035431;28;20202;-77
2022/01/14 02:26:18;;;;;;;46.97;26.13;;;1.80;99.90;;;;;;5039814;28;20189;-77
2022/01/14 02:28:45;;;;;;;59.13;27.07;;;1.80;99.90;;;;;;5037131;28;20174;-77
2022/01/14 02:31:11;;;;;;;80.73;29.20;;;1.80;99.90;;;;;;5042001;28;20190;-80
2022/01/14 02:33:37;;;;;;;55.27;27.13;;;1.80;99.90;;;;;;5039126;28;20588;-77
2022/01/14 02:36:05;;;;;;;56.50;27.23;;;1.70;99.90;;;;;;5025469;28;20212;-74
2022/01/14 02:38:30;;;;;;;47.83;25.47;;;1.70;99.90;;;;;;5043870;28;20693;-76
2022/01/14 02:40:56;;;;;;;55.60;27.87;;;1.70;99.90;;;;;;5039190;28;20188;-76
2022/01/14 02:43:23;;;;;;;69.00;27.43;;;1.70;99.90;;;;;;5040709;28;20320;-77
2022/01/14 02:45:52;;;;;;;63.93;27.23;;;1.70;99.90;;;;;;5046338;28;20180;-77
2022/01/14 02:48:24;;;;;;;54.47;26.77;;;1.70;99.90;;;;;;5047559;28;20248;-75
2022/01/14 02:56:16;;;;;;;57.60;25.87;;;1.70;99.90;;;;;;5045145;28;20190;-76
2022/01/14 02:58:43;;;;;;;130.97;29.07;;;1.70;99.90;;;;;;5029681;28;20177;-78
2022/01/14 03:01:11;;;;;;;110.50;29.07;;;1.60;99.90;;;;;;5040256;28;20185;-75
2022/01/14 03:03:39;;;;;;;115.97;29.93;;;1.50;99.90;;;;;;5049937;28;20680;-75
2022/01/14 03:06:06;;;;;;;63.27;28.57;;;1.40;99.90;;;;;;5040232;28;20182;-75
2022/01/14 03:08:33;;;;;;;54.37;23.90;;;1.50;99.90;;;;;;5040933;28;20183;-75
2022/01/14 03:11:08;;;;;;;53.77;25.83;;;1.50;99.90;;;;;;5025672;28;20232;-75
2022/01/14 03:13:35;;;;;;;68.23;26.33;;;1.50;99.90;;;;;;5042068;28;20342;-73
2022/01/14 03:16:02;;;;;;;118.87;28.03;;;1.50;99.90;;;;;;5043086;28;20704;-77
2022/01/14 03:18:44;;;;;;;103.50;27.07;;;1.60;99.90;;;;;;5028472;28;20212;-75
2022/01/14 03:21:11;;;;;;;119.10;27.47;;;1.50;99.90;;;;;;5043698;28;20332;-75
2022/01/14 03:23:48;;;;;;;109.70;28.83;;;1.40;99.90;;;;;;5048445;28;20216;-76
2022/01/14 03:26:15;;;;;;;69.73;28.47;;;1.30;99.90;;;;;;5036659;28;20181;-75
2022/01/14 03:28:42;;;;;;;44.40;23.50;;;1.30;99.90;;;;;;5047932;28;20193;-75
2022/01/14 03:31:09;;;;;;;47.97;24.17;;;1.20;99.90;;;;;;5041253;28;20602;-75
2022/01/14 03:33:36;;;;;;;55.67;26.77;;;1.30;99.90;;;;;;5041990;28;20202;-75
2022/01/14 03:36:03;;;;;;;51.70;25.40;;;1.30;99.90;;;;;;5009702;28;20190;-78
2022/01/14 03:38:29;;;;;;;49.33;25.17;;;1.40;99.90;;;;;;5019038;28;20233;-75
2022/01/14 03:40:55;;;;;;;72.60;26.30;;;1.30;99.90;;;;;;5043761;28;20657;-76
2022/01/14 03:43:21;;;;;;;77.77;26.10;;;1.30;99.90;;;;;;5049486;28;20202;-74
2022/01/14 03:45:49;;;;;;;50.40;24.57;;;1.30;99.90;;;;;;5050840;28;20185;-74
2022/01/14 03:48:15;;;;;;;53.17;24.77;;;1.30;99.90;;;;;;5047869;28;20530;-75
2022/01/14 03:50:42;;;;;;;73.47;27.13;;;1.30;99.90;;;;;;5038020;28;20185;-76
2022/01/14 03:53:08;;;;;;;41.17;23.37;;;1.40;99.90;;;;;;5037698;28;20209;-74
2022/01/14 03:55:34;;;;;;;66.50;26.07;;;1.40;99.90;;;;;;5042133;28;20570;-74
2022/01/14 03:57:59;;;;;;;72.97;26.13;;;1.30;99.90;;;;;;5050920;28;20283;-75
2022/01/14 04:00:25;;;;;;;57.37;25.33;;;1.30;99.90;;;;;;5043990;28;20324;-75
2022/01/14 04:02:51;;;;;;;60.83;25.83;;;1.30;99.90;;;;;;5050769;28;20277;-75
2022/01/14 04:05:17;;;;;;;51.40;24.53;;;1.40;99.90;;;;;;5039194;28;20189;-74
2022/01/14 04:07:43;;;;;;;56.40;24.63;;;1.40;99.90;;;;;;5045436;28;20192;-76
2022/01/14 04:10:12;;;;;;;73.00;24.07;;;1.40;99.90;;;;;;5043653;28;20244;-77
2022/01/14 04:13:02;;;;;;;47.87;24.07;;;1.40;99.90;;;;;;5047809;28;20249;-76
2022/01/14 04:15:39;;;;;;;53.50;25.73;;;1.30;99.90;;;;;;5040206;28;20197;-76
2022/01/14 04:18:17;;;;;;;41.40;22.37;;;1.40;99.90;;;;;;5037316;28;20602;-77
2022/01/14 04:20:49;;;;;;;54.27;22.77;;;1.40;99.90;;;;;;5042636;28;20170;-76
2022/01/14 04:23:21;;;;;;;46.70;23.07;;;1.40;99.90;;;;;;5046705;28;20212;-77
2022/01/14 04:25:47;;;;;;;48.93;24.70;;;1.40;99.90;;;;;;5037265;28;20179;-76
2022/01/14 04:28:13;;;;;;;139.90;26.43;;;1.40;99.90;;;;;;5033131;28;20178;-76
2022/01/14 04:30:39;;;;;;;39.93;23.30;;;1.40;99.90;;;;;;5040864;28;20178;-76
2022/01/14 04:33:06;;;;;;;81.00;26.30;;;1.40;99.90;;;;;;5043346;28;20228;-77
2022/01/14 04:35:33;;;;;;;75.83;26.00;;;1.40;99.90;;;;;;5036068;28;21052;-77
2022/01/14 04:37:59;;;;;;;56.63;24.17;;;1.40;99.90;;;;;;5027204;28;20214;-76
2022/01/14 04:40:25;;;;;;;56.03;22.70;;;1.50;99.90;;;;;;5045730;28;20185;-75
2022/01/14 04:42:53;;;;;;;54.23;25.47;;;1.40;99.90;;;;;;5044279;28;20230;-76
2022/01/14 04:48:05;;;;;;;56.13;25.87;;;1.50;99.90;;;;;;5044048;28;20190;-76
2022/01/14 04:50:31;;;;;;;74.10;24.13;;;1.50;99.90;;;;;;5043371;28;20212;-79
2022/01/14 04:52:57;;;;;;;63.43;24.63;;;1.50;99.90;;;;;;5046257;28;20213;-75
2022/01/14 04:55:24;;;;;;;105.23;25.73;;;1.40;99.90;;;;;;5045508;28;20707;-74
2022/01/14 04:57:51;;;;;;;43.27;22.37;;;1.30;99.90;;;;;;5047780;28;20245;-74
2022/01/14 05:00:22;;;;;;;42.07;21.63;;;1.30;99.90;;;;;;5037583;28;20185;-76
2022/01/14 05:02:48;;;;;;;61.20;23.53;;;1.30;99.90;;;;;;5049293;28;20210;-77
2022/01/14 05:05:20;;;;;;;45.47;21.67;;;1.30;99.90;;;;;;5040408;28;20227;-76
2022/01/14 05:07:47;;;;;;;61.27;22.03;;;1.30;99.90;;;;;;5044984;28;20194;-77
2022/01/14 05:12:45;;;;;;;59.20;21.70;;;1.20;99.90;;;;;;5048656;28;20790;-77
2022/01/14 05:15:12;;;;;;;74.90;25.20;;;1.10;99.90;;;;;;5041988;28;20186;-77
2022/01/14 05:17:37;;;;;;;64.40;22.93;;;1.10;99.90;;;;;;5050427;28;20708;-76
2022/01/14 05:20:05;;;;;;;118.23;29.07;;;1.10;99.90;;;;;;5042216;28;20179;-77
2022/01/14 05:22:30;;;;;;;46.33;23.53;;;1.10;99.90;;;;;;5041078;28;20217;-77
2022/01/14 05:24:57;;;;;;;45.30;22.47;;;1.10;99.90;;;;;;5040746;28;20174;-77
2022/01/14 05:27:23;;;;;;;81.43;26.20;;;1.10;99.90;;;;;;5023441;28;20186;-77
2022/01/14 05:29:49;;;;;;;82.23;26.30;;;1.10;99.90;;;;;;5043838;28;20186;-77
2022/01/14 05:32:15;;;;;;;47.90;23.03;;;1.10;99.90;;;;;;5049125;28;20684;-77
2022/01/14 05:34:46;;;;;;;48.73;23.40;;;1.00;99.90;;;;;;5042883;28;20192;-77
2022/01/14 05:37:12;;;;;;;50.57;25.17;;;1.10;99.90;;;;;;5042430;28;20209;-77
2022/01/14 05:39:39;;;;;;;59.07;26.37;;;1.10;99.90;;;;;;5042091;28;20436;-75
2022/01/14 05:42:05;;;;;;;45.87;24.30;;;1.10;99.90;;;;;;5048144;28;20228;-74
2022/01/14 05:44:32;;;;;;;53.10;28.73;;;1.10;99.90;;;;;;5038459;28;20272;-75
2022/01/14 05:46:59;;;;;;;59.70;26.80;;;1.10;99.90;;;;;;5043832;28;20558;-75
2022/01/14 05:49:25;;;;;;;75.33;32.20;;;1.10;99.90;;;;;;5038350;28;20265;-74
2022/01/14 05:51:51;;;;;;;56.80;27.63;;;1.20;99.90;;;;;;5045078;28;20271;-74
2022/01/14 05:54:18;;;;;;;53.33;25.80;;;1.20;99.90;;;;;;5046608;28;20677;-74
2022/01/14 05:56:44;;;;;;;87.00;26.50;;;1.20;99.90;;;;;;5028473;28;20237;-73
2022/01/14 05:59:11;;;;;;;55.27;25.20;;;1.20;99.90;;;;;;5038058;28;20232;-75
2022/01/14 06:01:38;;;;;;;77.83;27.30;;;1.10;99.90;;;;;;5039870;28;20181;-75
2022/01/14 06:04:05;;;;;;;66.17;27.13;;;1.10;99.90;;;;;;5038741;28;20296;-75
2022/01/14 06:06:31;;;;;;;71.50;27.33;;;1.10;99.90;;;;;;5041560;28;20205;-76
2022/01/14 06:08:58;;;;;;;53.20;22.33;;;1.10;99.90;;;;;;5045824;28;20193;-76
2022/01/14 06:11:24;;;;;;;58.20;24.20;;;1.10;99.90;;;;;;5031862;28;20581;-75
2022/01/14 06:13:50;;;;;;;44.20;21.33;;;1.10;99.90;;;;;;5034586;28;20194;-76
2022/01/14 06:16:16;;;;;;;88.57;25.30;;;1.20;99.90;;;;;;5039090;28;20541;-76
2022/01/14 06:18:42;;;;;;;45.93;22.80;;;1.20;99.90;;;;;;5041596;28;20210;-76
2022/01/14 06:21:08;;;;;;;53.47;21.63;;;1.20;99.90;;;;;;5046516;28;20186;-79
2022/01/14 06:23:35;;;;;;;54.33;24.17;;;1.20;99.90;;;;;;5044792;28;20224;-79
2022/01/14 06:26:01;;;;;;;57.47;23.13;;;1.20;99.90;;;;;;5044146;28;20654;-78
2022/01/14 06:28:27;;;;;;;50.20;23.30;;;1.20;99.90;;;;;;5055222;28;20189;-78
2022/01/14 06:30:53;;;;;;;69.93;24.40;;;1.10;99.90;;;;;;5036557;28;21681;-80
2022/01/14 06:33:19;;;;;;;43.73;22.60;;;1.20;99.90;;;;;;5040777;28;20206;-76
2022/01/14 06:35:45;;;;;;;49.87;21.60;;;1.10;99.90;;;;;;5046309;28;20200;-79
2022/01/14 06:38:11;;;;;;;64.40;23.13;;;1.10;99.90;;;;;;5051629;28;20205;-79
2022/01/14 06:40:37;;;;;;;45.30;22.70;;;1.10;99.90;;;;;;5047286;28;20852;-77
2022/01/14 06:43:05;;;;;;;54.23;20.77;;;1.00;99.90;;;;;;5046740;28;20198;-75
2022/01/14 06:45:32;;;;;;;45.87;21.47;;;1.00;99.90;;;;;;5046225;28;20189;-77
2022/01/14 06:47:58;;;;;;;45.80;21.53;;;1.00;99.90;;;;;;5030742;28;20279;-78
2022/01/14 06:50:25;;;;;;;39.83;21.23;;;1.00;99.90;;;;;;5048974;28;20192;-77
2022/01/14 06:52:50;;;;;;;52.97;23.83;;;1.00;99.90;;;;;;5047262;28;20206;-80
2022/01/14 06:55:17;;;;;;;45.70;23.27;;;1.10;99.90;;;;;;5043423;28;20508;-77
2022/01/14 06:57:43;;;;;;;58.20;22.63;;;1.10;99.90;;;;;;5049854;28;20550;-77
2022/01/14 07:00:14;;;;;;;55.20;23.13;;;1.10;99.90;;;;;;5039181;28;20456;-77
2022/01/14 07:02:40;;;;;;;45.73;20.23;;;1.10;99.90;;;;;;5033032;28;20210;-77
2022/01/14 07:05:07;;;;;;;43.87;18.57;;;1.00;99.90;;;;;;5045711;28;20240;-77
2022/01/14 07:07:33;;;;;;;34.97;18.17;;;1.00;99.90;;;;;;5041562;28;20185;-78
2022/01/14 07:10:00;;;;;;;35.20;18.47;;;0.90;99.90;;;;;;5042159;28;20198;-78
2022/01/14 07:12:33;;;;;;;34.53;17.37;;;0.90;99.90;;;;;;5040254;28;20249;-77
2022/01/14 07:15:00;;;;;;;30.30;17.47;;;0.80;99.90;;;;;;5035057;28;20256;-77
2022/01/14 07:17:27;;;;;;;28.03;16.37;;;0.70;99.90;;;;;;5050515;28;20743;-77
2022/01/14 07:19:57;;;;;;;45.97;16.83;;;0.70;99.90;;;;;;5042738;28;20263;-74
2022/01/14 07:22:23;;;;;;;34.47;17.37;;;0.60;99.90;;;;;;5047646;28;20371;-72
2022/01/14 07:24:49;;;;;;;33.53;18.03;;;0.60;99.90;;;;;;5041926;28;20179;-73
2022/01/14 07:27:16;;;;;;;38.13;17.63;;;0.60;99.90;;;;;;5044734;28;20235;-76
2022/01/14 07:29:42;;;;;;;30.67;18.03;;;0.60;99.90;;;;;;5043950;28;20182;-79
2022/01/14 07:32:09;;;;;;;47.03;19.57;;;0.60;99.90;;;;;;5042866;28;20187;-79
2022/01/14 07:34:35;;;;;;;37.43;18.10;;;0.70;99.90;;;;;;5041231;28;20268;-80
2022/01/14 07:37:02;;;;;;;42.53;19.17;;;0.60;99.90;;;;;;5043987;28;20210;-78
2022/01/14 07:39:28;;;;;;;34.93;19.60;;;0.60;99.90;;;;;;5036825;28;20289;-79
2022/01/14 07:41:54;;;;;;;46.07;19.77;;;0.60;99.90;;;;;;5038290;28;20278;-78
2022/01/14 07:44:20;;;;;;;39.67;19.13;;;0.70;99.90;;;;;;5043287;28;20562;-76
2022/01/14 07:46:49;;;;;;;49.63;19.30;;;0.70;99.90;;;;;;5041385;28;20185;-77
2022/01/14 07:49:15;;;;;;;48.67;17.90;;;0.70;99.90;;;;;;5046323;28;20182;-76
2022/01/14 07:51:41;;;;;;;28.37;17.10;;;0.70;99.90;;;;;;5041402;28;20204;-76
2022/01/14 07:54:07;;;;;;;29.70;16.53;;;0.70;99.90;;;;;;5042356;28;20210;-76
2022/01/14 07:56:35;;;;;;;38.10;18.47;;;0.70;99.90;;;;;;5044442;28;20264;-76
2022/01/14 07:59:01;;;;;;;31.20;17.53;;;0.70;99.90;;;;;;5039052;28;20650;-76
2022/01/14 08:01:27;;;;;;;46.63;20.80;;;0.70;99.90;;;;;;5039468;28;20190;-76
2022/01/14 08:03:53;;;;;;;37.17;19.00;;;0.70;99.90;;;;;;5039511;28;20642;-76
2022/01/14 08:06:19;;;;;;;34.23;19.97;;;0.70;99.90;;;;;;5041614;28;20180;-76
2022/01/14 08:08:45;;;;;;;36.90;18.67;;;0.80;99.90;;;;;;5041410;28;20181;-77
2022/01/14 08:11:11;;;;;;;37.43;19.03;;;0.80;99.90;;;;;;5026528;28;20643;-76
2022/01/14 08:13:36;;;;;;;43.47;22.13;;;0.90;99.90;;;;;;5039808;28;20232;-76
2022/01/14 08:16:02;;;;;;;45.77;23.70;;;0.90;99.90;;;;;;5040911;28;20666;-76
2022/01/14 08:18:28;;;;;;;42.03;22.60;;;1.00;99.90;;;;;;5045093;28;20297;-76
2022/01/14 08:20:55;;;;;;;46.13;21.97;;;1.00;99.90;;;;;;5038784;28;20257;-76
2022/01/14 08:23:21;;;;;;;34.73;20.40;;;1.00;99.90;;;;;;5053009;28;20282;-76
2022/01/14 08:25:47;;;;;;;39.43;21.03;;;1.00;99.90;;;;;;5040882;28;20737;-76
2022/01/14 08:28:12;;;;;;;36.07;19.70;;;1.00;99.90;;;;;;5044688;28;20189;-78
2022/01/14 08:30:38;;;;;;;33.80;20.13;;;1.10;99.90;;;;;;5049800;28;20181;-79
2022/01/14 08:33:04;;;;;;;38.83;19.50;;;1.00;99.90;;;;;;5048911;28;20692;-79
2022/01/14 08:35:30;;;;;;;47.80;20.77;;;1.10;99.90;;;;;;5038962;28;20181;-77
2022/01/14 08:37:55;;;;;;;31.87;19.90;;;1.10;99.90;;;;;;5048340;28;20197;-73
2022/01/14 08:40:21;;;;;;;32.90;18.70;;;1.10;99.90;;;;;;5046659;28;20177;-74
2022/01/14 08:42:53;;;;;;;46.67;19.47;;;1.10;99.90;;;;;;5040205;28;20677;-75
2022/01/14 08:45:21;;;;;;;40.23;20.43;;;1.10;99.90;;;;;;5036543;28;20205;-76
2022/01/14 08:47:48;;;;;;;46.43;20.93;;;1.00;99.90;;;;;;5034099;28;20178;-77
2022/01/14 08:50:14;;;;;;;33.50;18.70;;;1.10;99.90;;;;;;5047364;28;20455;-75
2022/01/14 08:52:39;;;;;;;37.23;22.33;;;1.20;99.90;;;;;;5052202;28;20680;-75
2022/01/14 08:55:05;;;;;;;48.23;22.13;;;1.30;99.90;;;;;;5052426;28;20257;-76
2022/01/14 08:57:31;;;;;;;36.53;20.43;;;1.30;99.90;;;;;;5050532;28;20209;-76
2022/01/14 08:59:57;;;;;;;48.37;23.87;;;1.30;99.90;;;;;;5051803;28;20217;-76
2022/01/14 09:02:23;;;;;;;37.67;21.07;;;1.40;99.90;;;;;;5052127;28;20190;-76
2022/01/14 09:04:48;;;;;;;44.83;21.73;;;1.50;99.90;;;;;;5050616;28;20178;-75
2022/01/14 09:07:16;;;;;;;36.33;19.83;;;1.50;99.90;;;;;;5047348;28;20196;-76
2022/01/14 09:09:42;;;;;;;46.63;20.00;;;1.40;99.90;;;;;;5030812;28;20194;-75
2022/01/14 09:12:11;;;;;;;34.23;20.07;;;1.50;99.90;;;;;;5032105;28;20254;-75
2022/01/14 09:14:37;;;;;;;38.80;20.90;;;1.50;99.90;;;;;;5032215;28;20663;-75
2022/01/14 09:17:03;;;;;;;39.93;20.83;;;1.50;99.90;;;;;;5031423;28;20289;-75
2022/01/14 09:19:29;;;;;;;43.10;21.47;;;1.50;99.90;;;;;;5039319;28;20201;-75
2022/01/14 09:21:55;;;;;;;47.20;20.90;;;1.40;99.90;;;;;;5050219;28;20212;-75
2022/01/14 09:24:20;;;;;;;37.27;20.80;;;1.40;99.90;;;;;;5051693;28;20205;-75
2022/01/14 09:26:46;;;;;;;49.13;21.53;;;1.50;99.90;;;;;;5048651;28;20193;-76
2022/01/14 09:29:12;;;;;;;44.17;24.03;;;1.60;99.90;;;;;;5031659;28;20198;-75
2022/01/14 09:31:38;;;;;;;57.27;25.47;;;1.50;99.90;;;;;;5031551;28;20181;-76
2022/01/14 09:34:03;;;;;;;50.70;22.13;;;1.60;99.90;;;;;;5036112;28;20202;-75
2022/01/14 09:36:29;;;;;;;38.23;22.03;;;1.50;99.90;;;;;;5045511;28;20175;-75
2022/01/14 09:38:57;;;;;;;46.63;22.13;;;1.50;99.90;;;;;;5036908;28;20252;-75
2022/01/14 09:41:23;;;;;;;45.07;22.80;;;1.50;99.90;;;;;;5049842;28;20205;-76
2022/01/14 09:43:49;;;;;;;47.80;23.23;;;1.50;99.90;;;;;;5030356;28;20218;-76
2022/01/14 09:46:15;;;;;;;49.57;21.10;;;1.60;99.90;;;;;;5042096;28;20268;-75
2022/01/14 09:48:41;;;;;;;36.33;22.47;;;1.60;99.90;;;;;;5048290;28;20188;-75
2022/01/14 09:51:08;;;;;;;47.07;21.27;;;1.60;99.90;;;;;;5062552;28;20186;-75
2022/01/14 09:53:34;;;;;;;43.47;25.30;;;1.60;99.90;;;;;;5051224;28;20202;-75
2022/01/14 09:56:02;;;;;;;58.73;25.60;;;1.70;99.90;;;;;;5051097;28;20664;-75
2022/01/14 09:58:35;;;;;;;49.57;25.37;;;1.70;99.90;;;;;;5049195;28;20806;-75
2022/01/14 10:01:19;;;;;;;41.13;22.37;;;1.60;99.90;;;;;;5051323;28;20178;-76
2022/01/14 10:03:49;;;;;;;52.10;23.17;;;1.70;99.90;;;;;;5044909;28;20208;-75
2022/01/14 10:06:35;;;;;;;40.20;22.23;;;1.70;99.90;;;;;;5050910;28;20188;-76
2022/01/14 10:09:09;;;;;;;47.07;21.43;;;1.80;99.90;;;;;;5048445;28;21844;-76
2022/01/14 10:11:36;;;;;;;44.17;22.93;;;1.70;99.90;;;;;;5031192;28;20705;-75
2022/01/14 10:14:12;;;;;;;60.93;26.90;;;1.70;99.90;;;;;;5029750;28;20281;-76
2022/01/14 10:16:41;;;;;;;53.30;22.73;;;1.60;99.90;;;;;;5030654;28;20193;-75
2022/01/14 10:19:22;;;;;;;37.87;21.80;;;1.60;99.90;;;;;;5031956;28;20261;-75
2022/01/14 10:21:48;;;;;;;34.87;21.83;;;1.60;99.90;;;;;;5031449;28;20193;-76
2022/01/14 10:24:14;;;;;;;48.67;23.47;;;1.60;99.90;;;;;;5030888;28;20200;-75
2022/01/14 10:26:58;;;;;;;34.73;21.07;;;1.70;99.90;;;;;;5035640;28;20528;-75
2022/01/14 10:29:38;;;;;;;49.00;23.00;;;1.70;99.90;;;;;;5038245;28;20178;-75
2022/01/14 10:32:06;;;;;;;47.07;25.27;;;1.70;99.90;;;;;;5034593;28;20174;-76
2022/01/14 10:34:33;;;;;;;46.27;24.37;;;1.80;99.90;;;;;;5049523;28;20181;-75
2022/01/14 10:37:13;;;;;;;44.77;23.93;;;1.90;99.90;;;;;;5050339;28;20212;-75
2022/01/14 10:39:48;;;;;;;44.83;24.00;;;1.90;99.90;;;;;;5051105;28;20265;-75
2022/01/14 10:42:28;;;;;;;41.10;24.10;;;1.90;99.90;;;;;;5034046;28;20177;-76
2022/01/14 10:45:09;;;;;;;65.60;25.27;;;1.80;99.90;;;;;;5033038;28;20174;-77
2022/01/14 10:47:35;;;;;;;52.93;23.27;;;1.90;99.90;;;;;;5032782;28;20532;-76
2022/01/14 10:50:01;;;;;;;43.00;25.13;;;1.90;99.90;;;;;;5047600;28;20268;-76
2022/01/14 10:52:27;;;;;;;41.30;23.30;;;1.90;99.90;;;;;;5050274;28;20209;-75
2022/01/14 10:54:59;;;;;;;41.57;23.70;;;2.00;99.90;;;;;;5055172;28;20177;-75
2022/01/14 10:57:29;;;;;;;42.70;25.17;;;2.10;99.90;;;;;;5041554;28;20202;-75
2022/01/14 11:00:15;;;;;;;48.10;25.70;;;2.10;99.90;;;;;;5052807;28;20222;-75
2022/01/14 11:02:48;;;;;;;55.00;27.83;;;2.00;99.90;;;;;;5056584;28;20196;-76
2022/01/14 11:05:22;;;;;;;48.70;26.53;;;2.00;99.90;;;;;;5043388;28;20174;-76
2022/01/14 11:07:49;;;;;;;46.50;25.37;;;1.90;99.90;;;;;;5035588;28;20174;-76
2022/01/14 11:10:25;;;;;;;45.60;25.30;;;1.80;99.90;;;;;;5034011;28;20182;-77
2022/01/14 11:12:53;;;;;;;53.80;27.50;;;2.00;99.90;;;;;;5045829;28;20533;-75
2022/01/14 11:15:21;;;;;;;48.97;27.00;;;1.90;99.90;;;;;;5036347;28;20188;-77
2022/01/14 11:17:52;;;;;;;49.37;26.57;;;1.90;99.90;;;;;;5045120;28;20202;-76
2022/01/14 11:20:24;;;;;;;47.17;26.27;;;1.90;99.90;;;;;;5043405;28;20658;-76
2022/01/14 11:25:39;;;;;;;49.20;28.33;;;1.90;99.90;;;;;;5042107;28;20182;-76
2022/01/14 11:28:07;;;;;;;51.10;28.67;;;2.00;99.90;;;;;;5032568;28;20645;-76
2022/01/14 11:30:38;;;;;;;46.30;27.13;;;2.10;99.90;;;;;;5040667;28;20281;-76
2022/01/14 11:33:05;;;;;;;40.93;24.20;;;2.10;99.90;;;;;;5038817;28;20716;-77
2022/01/14 11:35:32;;;;;;;44.87;26.37;;;2.10;99.90;;;;;;5048361;28;20559;-75
2022/01/14 11:37:59;;;;;;;45.43;26.97;;;2.20;99.90;;;;;;5053868;28;20210;-76
2022/01/14 11:40:26;;;;;;;49.20;28.10;;;2.10;99.90;;;;;;5049003;28;20170;-76
2022/01/14 11:42:59;;;;;;;54.93;29.50;;;2.10;99.90;;;;;;5047894;28;20209;-75
2022/01/14 11:45:47;;;;;;;57.73;30.37;;;2.20;99.90;;;;;;5050190;28;20771;-76
2022/01/14 11:48:34;;;;;;;51.00;27.77;;;2.20;99.90;;;;;;5036948;28;20187;-76
2022/01/14 11:51:08;;;;;;;53.73;27.93;;;2.20;99.90;;;;;;5051101;28;20186;-75
2022/01/14 11:53:43;;;;;;;49.50;28.10;;;2.20;99.90;;;;;;5051260;28;20205;-76
2022/01/14 11:56:31;;;;;;;55.87;29.20;;;2.20;99.90;;;;;;5033453;28;20179;-76
2022/01/14 11:59:20;;;;;;;58.17;30.63;;;2.10;99.90;;;;;;5034496;28;20201;-76
2022/01/14 12:01:47;;;;;;;54.90;30.60;;;2.10;99.90;;;;;;5039974;28;20209;-74
2022/01/14 12:04:14;;;;;;;57.00;31.73;;;2.10;99.90;;;;;;5055694;28;20195;-75
2022/01/14 12:07:06;;;;;;;59.73;32.70;;;2.10;99.90;;;;;;5048256;28;20229;-76
2022/01/14 12:09:58;;;;;;;56.97;32.17;;;2.10;99.90;;;;;;5039091;28;20196;-75
2022/01/14 12:12:31;;;;;;;64.30;34.60;;;2.10;99.90;;;;;;5055026;28;20673;-76
2022/01/14 12:15:03;;;;;;;60.53;33.13;;;2.10;99.90;;;;;;5036855;28;20179;-76
2022/01/14 12:17:33;;;;;;;67.83;35.87;;;2.30;99.90;;;;;;5032898;28;20241;-76
2022/01/14 12:20:14;;;;;;;58.83;31.13;;;2.30;99.90;;;;;;5032602;28;20254;-76
2022/01/14 12:22:41;;;;;;;66.20;34.07;;;2.40;99.90;;;;;;5047553;28;20275;-76
2022/01/14 12:25:09;;;;;;;79.33;44.03;;;2.40;99.90;;;;;;5039345;28;20228;-76
2022/01/14 12:27:47;;;;;;;74.30;38.03;;;2.40;99.90;;;;;;5048436;28;20217;-76
2022/01/14 12:30:20;;;;;;;84.27;39.00;;;2.40;99.90;;;;;;5051811;28;20191;-76
2022/01/14 12:32:49;;;;;;;81.80;40.07;;;2.50;99.90;;;;;;5050037;28;20214;-76
2022/01/14 12:35:21;;;;;;;77.20;36.23;;;2.50;99.90;;;;;;5047170;28;20205;-75
2022/01/14 12:37:56;;;;;;;79.40;38.07;;;2.40;99.90;;;;;;5042429;28;20202;-76
2022/01/14 12:40:25;;;;;;;78.20;37.70;;;2.40;99.90;;;;;;5039699;28;20669;-75
2022/01/14 12:43:10;;;;;;;68.73;35.53;;;2.40;99.90;;;;;;5038906;28;20197;-76
2022/01/14 12:45:41;;;;;;;63.47;34.00;;;2.50;99.90;;;;;;5036544;28;20180;-78
2022/01/14 12:48:58;;;;;;;73.37;37.40;;;2.50;99.90;;;;;;5048838;28;20188;-76
2022/01/14 12:51:19;;;;;;;84.77;41.17;;;2.60;99.90;;;;;;5045843;28;20209;-74
2022/01/14 12:53:50;;;;;;;91.40;41.40;;;2.70;99.90;;;;;;5044721;28;20319;-75
2022/01/14 12:56:18;;;;;;;73.80;34.60;;;2.70;99.90;;;;;;5044601;28;20200;-77
2022/01/14 12:59:00;;;;;;;78.23;35.37;;;2.70;99.90;;;;;;5037464;28;20205;-81
2022/01/14 13:01:38;;;;;;;82.17;35.07;;;2.60;99.90;;;;;;5034353;28;20264;-75
2022/01/14 13:04:08;;;;;;;87.93;35.67;;;2.60;99.90;;;;;;5038539;28;20205;-78
2022/01/14 13:06:49;;;;;;;79.17;34.33;;;2.60;99.90;;;;;;5041618;28;20201;-76
2022/01/14 13:09:20;;;;;;;74.47;34.93;;;2.40;99.90;;;;;;5034635;28;20192;-76
2022/01/14 13:11:57;;;;;;;77.90;33.47;;;2.30;99.90;;;;;;5041234;28;20542;-76
2022/01/14 13:14:42;;;;;;;72.07;32.97;;;2.30;99.90;;;;;;5035249;28;20246;-76
2022/01/14 13:17:25;;;;;;;84.33;35.97;;;2.50;99.90;;;;;;5032679;28;20265;-76
2022/01/14 13:19:56;;;;;;;79.73;34.80;;;2.60;99.90;;;;;;5032309;28;20679;-76
2022/01/14 13:22:22;;;;;;;71.90;33.93;;;2.50;99.90;;;;;;5045664;28;20288;-77